Time;durP1;ratioP1;P1;durP2;ratioP2;P2;SDS_P1;SDS_P2;PMS_P1;PMS_P2;Temp;Humidity;BMP_temperature;BMP_pressure;BME280_temperature;BME280_humidity;BME280_pressure;Samples;Min_cycle;Max_cycle;Signal;HPM_P1;HPM_P2
2022/12/15 00:39:58;;;;;;;0.60;0.60;;;;;;;;;;1863105;76;26261;-39
2022/12/15 00:42:27;;;;;;;0.70;0.70;;;;;;;;;;1868448;76;26596;-37
2022/12/15 00:44:55;;;;;;;0.60;0.60;;;;;;;;;;1861004;76;27056;-42
2022/12/15 00:47:22;;;;;;;0.60;0.60;;;;;;;;;;1861702;75;26202;-42
2022/12/15 01:20:20;;;;;;;0.70;0.70;;;;;;;;;;1854327;76;26163;-41
2022/12/15 01:22:48;;;;;;;0.60;0.60;;;;;;;;;;1855525;75;26144;-39
2022/12/15 01:25:16;;;;;;;0.60;0.60;;;;;;;;;;1857772;77;27084;-39
2022/12/15 01:27:44;;;;;;;0.60;0.60;;;;;;;;;;1860737;77;26202;-37
2022/12/15 01:30:12;;;;;;;0.70;0.70;;;;;;;;;;1850348;77;26210;-37
2022/12/15 01:32:40;;;;;;;0.60;0.60;;;;;;;;;;1853861;77;26837;-38
2022/12/15 01:35:07;;;;;;;0.50;0.50;;;;;;;;;;1856378;77;26739;-38
2022/12/15 01:37:35;;;;;;;0.80;0.80;;;;;;;;;;1856133;77;26175;-39
2022/12/15 01:42:48;;;;;;;0.70;0.70;;;;;;;;;;1851269;77;26162;-39
2022/12/15 01:45:26;;;;;;;0.70;0.70;;;;;;;;;;1858523;77;26176;-37
2022/12/15 01:47:55;;;;;;;0.62;0.62;;;;;;;;;;1848750;77;26747;-41
2022/12/15 01:50:25;;;;;;;0.55;0.55;;;;;;;;;;1859581;77;26693;-43
2022/12/15 01:52:53;;;;;;;0.50;0.50;;;;;;;;;;1852265;76;27103;-41
2022/12/15 01:55:21;;;;;;;0.60;0.60;;;;;;;;;;1860309;77;26156;-40
2022/12/15 01:57:49;;;;;;;0.60;0.60;;;;;;;;;;1860709;77;26940;-37
2022/12/15 02:00:16;;;;;;;0.75;0.75;;;;;;;;;;1838901;77;26271;-42
2022/12/15 02:05:21;;;;;;;0.55;0.55;;;;;;;;;;1891161;73;27243;-39
2022/12/15 02:07:48;;;;;;;0.60;0.60;;;;;;;;;;1831733;76;26225;-39
2022/12/15 02:10:15;;;;;;;0.68;0.68;;;;;;;;;;1819545;76;26252;-38
2022/12/15 02:12:56;;;;;;;0.60;0.60;;;;;;;;;;1818287;76;26189;-37
2022/12/15 02:15:40;;;;;;;0.60;0.60;;;;;;;;;;1825029;77;26279;-36
2022/12/15 02:18:08;;;;;;;0.60;0.60;;;;;;;;;;1819175;76;26206;-38
2022/12/15 02:20:53;;;;;;;0.70;0.70;;;;;;;;;;1823224;77;26268;-37
2022/12/15 02:23:28;;;;;;;0.57;0.57;;;;;;;;;;1835989;76;26182;-39
2022/12/15 02:26:12;;;;;;;0.60;0.60;;;;;;;;;;1824715;77;26300;-37
2022/12/15 02:28:46;;;;;;;0.60;0.60;;;;;;;;;;1833805;76;26331;-37
2022/12/15 02:34:02;;;;;;;0.50;0.50;;;;;;;;;;1835813;77;25897;-37
2022/12/15 02:36:30;;;;;;;0.60;0.60;;;;;;;;;;1839236;77;26573;-37
2022/12/15 02:38:58;;;;;;;0.50;0.50;;;;;;;;;;1821093;77;26744;-38
2022/12/15 02:41:36;;;;;;;0.60;0.60;;;;;;;;;;1815197;77;26215;-37
2022/12/15 02:44:04;;;;;;;1.05;0.60;;;;;;;;;;1826670;75;26707;-39
2022/12/15 02:46:33;;;;;;;0.60;0.60;;;;;;;;;;1829218;76;26700;-41
2022/12/15 02:49:08;;;;;;;0.50;0.50;;;;;;;;;;1836374;76;26673;-42
2022/12/15 02:51:42;;;;;;;0.50;0.50;;;;;;;;;;1841357;77;26204;-39
2022/12/15 02:54:11;;;;;;;0.60;0.60;;;;;;;;;;1839649;76;26290;-38
2022/12/15 02:56:57;;;;;;;0.93;0.70;;;;;;;;;;1834563;76;26197;-36
2022/12/15 02:59:31;;;;;;;0.60;0.60;;;;;;;;;;1821329;77;26279;-36
2022/12/15 03:02:04;;;;;;;0.60;0.60;;;;;;;;;;1832490;77;26216;-42
2022/12/15 03:04:35;;;;;;;0.53;0.53;;;;;;;;;;1834200;77;26291;-42
2022/12/15 03:07:03;;;;;;;0.60;0.60;;;;;;;;;;1847738;75;26299;-36
2022/12/15 03:09:31;;;;;;;2.27;0.57;;;;;;;;;;1856382;75;26192;-36
2022/12/15 03:11:59;;;;;;;1.80;0.60;;;;;;;;;;1869216;75;26224;-35
2022/12/15 03:14:26;;;;;;;0.50;0.50;;;;;;;;;;1847406;75;26326;-35
2022/12/15 03:16:54;;;;;;;0.50;0.50;;;;;;;;;;1852649;75;26204;-34
2022/12/15 03:19:21;;;;;;;0.60;0.60;;;;;;;;;;1858716;75;28606;-37
2022/12/15 03:21:48;;;;;;;0.60;0.60;;;;;;;;;;1858295;76;26208;-38
2022/12/15 03:24:16;;;;;;;2.05;0.60;;;;;;;;;;1853729;75;26212;-37
2022/12/15 03:26:43;;;;;;;0.55;0.55;;;;;;;;;;1836757;75;26207;-35
2022/12/15 03:29:10;;;;;;;0.50;0.50;;;;;;;;;;1846641;75;26695;-36
2022/12/15 03:31:37;;;;;;;0.50;0.50;;;;;;;;;;1864722;75;26778;-44
2022/12/15 03:34:05;;;;;;;0.40;0.40;;;;;;;;;;1859379;75;26653;-37
2022/12/15 03:36:32;;;;;;;0.40;0.40;;;;;;;;;;1856697;76;26208;-38
2022/12/15 03:38:59;;;;;;;0.68;0.57;;;;;;;;;;1859626;75;26207;-45
2022/12/15 03:41:27;;;;;;;0.50;0.50;;;;;;;;;;1853398;75;26172;-37
2022/12/15 03:43:54;;;;;;;0.60;0.60;;;;;;;;;;1852387;75;26290;-38
2022/12/15 03:46:21;;;;;;;0.50;0.50;;;;;;;;;;1844688;75;26212;-36
2022/12/15 03:48:49;;;;;;;0.50;0.50;;;;;;;;;;1855550;76;26198;-36
2022/12/15 03:51:16;;;;;;;0.57;0.57;;;;;;;;;;1869102;75;26634;-35
2022/12/15 03:53:46;;;;;;;0.55;0.55;;;;;;;;;;1860955;76;27063;-35
2022/12/15 03:56:13;;;;;;;0.47;0.47;;;;;;;;;;1862630;75;26166;-40
2022/12/15 03:58:40;;;;;;;0.50;0.50;;;;;;;;;;1856187;76;26300;-41
2022/12/15 04:01:09;;;;;;;0.60;0.60;;;;;;;;;;1850381;76;26274;-43
2022/12/15 04:03:36;;;;;;;0.40;0.40;;;;;;;;;;1856378;75;26228;-41
2022/12/15 04:06:03;;;;;;;0.60;0.60;;;;;;;;;;1849875;75;28045;-36
2022/12/15 04:08:31;;;;;;;0.50;0.50;;;;;;;;;;1811375;77;26212;-35
2022/12/15 04:10:58;;;;;;;1.12;0.70;;;;;;;;;;1819671;77;26846;-38
2022/12/15 04:13:26;;;;;;;0.50;0.50;;;;;;;;;;1811732;76;27003;-44
2022/12/15 04:15:53;;;;;;;0.40;0.40;;;;;;;;;;1814093;77;26671;-36
2022/12/15 04:18:20;;;;;;;0.40;0.40;;;;;;;;;;1821094;76;27119;-42
2022/12/15 04:20:47;;;;;;;0.50;0.50;;;;;;;;;;1816293;77;26285;-35
2022/12/15 04:23:15;;;;;;;0.50;0.50;;;;;;;;;;1836462;77;26193;-38
2022/12/15 05:32:06;;;;;;;0.55;0.55;;;;;;;;;;1827857;77;26170;-34
2022/12/15 05:34:34;;;;;;;0.70;0.70;;;;;;;;;;1834289;76;26213;-39
2022/12/15 05:37:02;;;;;;;0.40;0.40;;;;;;;;;;1834921;77;26528;-37
2022/12/15 05:39:30;;;;;;;0.60;0.60;;;;;;;;;;1834329;76;26280;-42
2022/12/15 05:41:57;;;;;;;0.68;0.68;;;;;;;;;;1824300;77;26275;-41
2022/12/15 05:44:25;;;;;;;0.70;0.70;;;;;;;;;;1833325;77;26278;-38
2022/12/15 05:46:52;;;;;;;0.70;0.70;;;;;;;;;;1848292;75;26225;-35
2022/12/15 05:49:19;;;;;;;0.80;0.80;;;;;;;;;;1810408;77;28583;-39
2022/12/15 05:51:47;;;;;;;0.72;0.72;;;;;;;;;;1812741;77;26220;-36
2022/12/15 05:54:16;;;;;;;0.68;0.68;;;;;;;;;;1814406;76;26208;-41
2022/12/15 05:56:43;;;;;;;0.70;0.70;;;;;;;;;;1812049;77;26266;-36
2022/12/15 05:59:10;;;;;;;1.10;1.00;;;;;;;;;;1811848;77;26285;-38
2022/12/15 06:01:38;;;;;;;1.05;0.90;;;;;;;;;;1824034;77;26703;-36
2022/12/15 06:04:06;;;;;;;0.82;0.82;;;;;;;;;;1818627;77;26212;-36
2022/12/15 06:06:33;;;;;;;0.80;0.80;;;;;;;;;;1819590;77;26664;-43
2022/12/15 06:09:00;;;;;;;0.88;0.88;;;;;;;;;;1823543;75;27267;-36
2022/12/15 06:11:27;;;;;;;8.40;0.85;;;;;;;;;;1845446;76;26752;-40
2022/12/15 06:13:56;;;;;;;0.85;0.85;;;;;;;;;;1830146;76;26204;-38
2022/12/15 06:16:25;;;;;;;0.82;0.82;;;;;;;;;;1829668;75;26316;-36
2022/12/15 06:18:53;;;;;;;1.52;0.70;;;;;;;;;;1848548;75;26231;-42
2022/12/15 06:21:25;;;;;;;0.70;0.70;;;;;;;;;;1853990;75;26177;-38
2022/12/15 06:23:52;;;;;;;0.88;0.88;;;;;;;;;;1842818;76;26298;-40
2022/12/15 06:26:30;;;;;;;2.00;0.90;;;;;;;;;;1829804;76;26209;-41
2022/12/15 06:29:01;;;;;;;0.70;0.70;;;;;;;;;;1832406;75;26279;-38
2022/12/15 06:31:28;;;;;;;0.70;0.70;;;;;;;;;;1846668;76;26209;-39
2022/12/15 06:33:55;;;;;;;1.05;0.80;;;;;;;;;;1844884;75;26805;-38
2022/12/15 06:36:27;;;;;;;0.70;0.70;;;;;;;;;;1843354;76;26228;-37
2022/12/15 06:38:54;;;;;;;2.87;0.70;;;;;;;;;;1831630;75;26636;-39
2022/12/15 06:41:21;;;;;;;2.37;0.80;;;;;;;;;;1840757;75;26712;-41
2022/12/15 06:43:50;;;;;;;0.70;0.70;;;;;;;;;;1846457;76;26974;-36
2022/12/15 06:46:17;;;;;;;0.80;0.80;;;;;;;;;;1845693;76;26270;-40
2022/12/15 06:48:45;;;;;;;0.70;0.70;;;;;;;;;;1838303;76;26286;-36
2022/12/15 06:51:13;;;;;;;0.90;0.90;;;;;;;;;;1846266;75;26240;-35
2022/12/15 06:53:41;;;;;;;0.80;0.80;;;;;;;;;;1845961;75;26263;-38
2022/12/15 06:56:10;;;;;;;0.85;0.72;;;;;;;;;;1867769;75;26194;-39
2022/12/15 06:58:38;;;;;;;1.82;0.78;;;;;;;;;;1840754;75;26219;-38
2022/12/15 07:01:06;;;;;;;0.93;0.90;;;;;;;;;;1835725;76;26227;-36
2022/12/15 07:03:35;;;;;;;1.12;0.80;;;;;;;;;;1835565;76;26205;-36
2022/12/15 07:06:03;;;;;;;1.00;1.00;;;;;;;;;;1836077;75;26235;-38
2022/12/15 07:08:31;;;;;;;0.90;0.90;;;;;;;;;;1829031;75;26274;-42
2022/12/15 07:10:58;;;;;;;1.00;1.00;;;;;;;;;;1845240;75;26217;-38
2022/12/15 07:13:25;;;;;;;1.10;1.10;;;;;;;;;;1846754;75;26208;-37
2022/12/15 07:15:52;;;;;;;0.90;0.90;;;;;;;;;;1839256;75;26298;-42
2022/12/15 07:18:20;;;;;;;1.67;1.10;;;;;;;;;;1845202;75;26208;-39
2022/12/15 07:20:48;;;;;;;1.40;1.30;;;;;;;;;;1841569;75;26197;-35
2022/12/15 07:23:15;;;;;;;1.10;1.10;;;;;;;;;;1834767;76;26506;-39
2022/12/15 07:25:42;;;;;;;1.35;1.25;;;;;;;;;;1838901;76;26938;-37
2022/12/15 07:28:10;;;;;;;2.85;1.40;;;;;;;;;;1841856;75;26689;-39
2022/12/15 07:30:37;;;;;;;1.02;1.02;;;;;;;;;;1846854;75;26687;-43
2022/12/15 07:33:05;;;;;;;1.12;1.12;;;;;;;;;;1844584;75;26290;-40
2022/12/15 07:35:32;;;;;;;1.30;1.20;;;;;;;;;;1845047;75;26236;-41
2022/12/15 07:37:59;;;;;;;1.30;1.20;;;;;;;;;;1827512;76;26318;-39
2022/12/15 07:40:27;;;;;;;1.42;1.12;;;;;;;;;;1844939;75;26727;-37
2022/12/15 07:42:54;;;;;;;1.30;1.20;;;;;;;;;;1817061;75;26305;-42
2022/12/15 07:45:21;;;;;;;1.10;1.10;;;;;;;;;;1820227;76;26219;-40
2022/12/15 07:47:49;;;;;;;1.50;1.50;;;;;;;;;;1842177;75;26298;-42
2022/12/15 07:50:17;;;;;;;1.80;1.70;;;;;;;;;;1830545;75;26293;-39
2022/12/15 07:52:45;;;;;;;2.05;1.40;;;;;;;;;;1826960;75;26652;-40
2022/12/15 07:55:12;;;;;;;1.45;1.42;;;;;;;;;;1828645;75;26224;-35
2022/12/15 07:57:39;;;;;;;2.47;1.45;;;;;;;;;;1825247;76;26267;-37
2022/12/15 08:00:09;;;;;;;1.60;1.60;;;;;;;;;;1832203;75;26215;-41
2022/12/15 08:02:36;;;;;;;1.42;1.40;;;;;;;;;;1829252;75;26624;-37
2022/12/15 08:05:03;;;;;;;1.27;1.27;;;;;;;;;;1834289;75;26733;-39
2022/12/15 08:07:31;;;;;;;1.85;1.40;;;;;;;;;;1827501;76;26309;-39
2022/12/15 08:09:58;;;;;;;1.70;1.50;;;;;;;;;;1820859;76;26231;-38
2022/12/15 08:12:26;;;;;;;1.40;1.40;;;;;;;;;;1808366;76;26213;-37
2022/12/15 08:14:54;;;;;;;1.27;1.27;;;;;;;;;;1813981;77;26279;-34
2022/12/15 08:17:21;;;;;;;1.52;1.30;;;;;;;;;;1811947;77;26202;-36
2022/12/15 08:19:49;;;;;;;1.40;1.30;;;;;;;;;;1820442;76;26220;-37
2022/12/15 08:22:16;;;;;;;1.15;1.12;;;;;;;;;;1812638;77;26290;-38
2022/12/15 08:24:43;;;;;;;1.50;1.40;;;;;;;;;;1814777;76;26381;-38
2022/12/15 08:27:10;;;;;;;1.40;1.30;;;;;;;;;;1824919;76;26668;-38
2022/12/15 08:29:38;;;;;;;1.42;1.42;;;;;;;;;;1812027;77;28126;-40
2022/12/15 08:32:05;;;;;;;2.35;1.50;;;;;;;;;;1817346;76;26306;-35
2022/12/15 08:34:32;;;;;;;1.37;1.27;;;;;;;;;;1819061;76;26702;-37
2022/12/15 08:37:00;;;;;;;1.20;1.20;;;;;;;;;;1843043;76;26283;-36
2022/12/15 08:39:27;;;;;;;1.20;1.20;;;;;;;;;;1848993;77;26209;-36
2022/12/15 08:41:55;;;;;;;1.22;1.22;;;;;;;;;;1831400;76;26205;-40
2022/12/15 08:44:22;;;;;;;1.20;1.20;;;;;;;;;;1835037;76;26266;-34
2022/12/15 08:46:50;;;;;;;1.10;1.10;;;;;;;;;;1835360;76;26225;-38
2022/12/15 08:49:17;;;;;;;1.20;1.20;;;;;;;;;;1841908;76;26005;-37
2022/12/15 08:51:44;;;;;;;1.10;1.10;;;;;;;;;;1836347;75;26241;-34
2022/12/15 08:54:11;;;;;;;1.30;1.30;;;;;;;;;;1833922;75;26287;-35
2022/12/15 08:56:39;;;;;;;1.00;1.00;;;;;;;;;;1836268;76;26257;-44
2022/12/15 08:59:06;;;;;;;1.20;1.20;;;;;;;;;;1841495;76;26284;-33
2022/12/15 09:01:38;;;;;;;1.10;1.10;;;;;;;;;;1839108;77;25237;-37
2022/12/15 09:04:03;;;;;;;1.02;1.02;;;;;;;;;;1842438;77;26213;-34
2022/12/15 09:06:32;;;;;;;1.75;0.95;;;;;;;;;;1827568;76;26330;-38
2022/12/15 09:09:01;;;;;;;1.10;1.10;;;;;;;;;;1838965;75;27067;-36
2022/12/15 09:11:29;;;;;;;1.07;1.07;;;;;;;;;;1854959;75;26260;-37
2022/12/15 09:13:56;;;;;;;1.87;0.90;;;;;;;;;;1860566;75;26194;-37
2022/12/15 09:16:24;;;;;;;1.82;1.10;;;;;;;;;;1852572;75;26202;-35
2022/12/15 09:18:52;;;;;;;1.00;1.00;;;;;;;;;;1867528;75;26712;-39
2022/12/15 09:21:25;;;;;;;1.10;1.10;;;;;;;;;;1849912;75;26208;-34
2022/12/15 09:23:50;;;;;;;2.05;1.10;;;;;;;;;;1845446;75;26216;-37
2022/12/15 09:26:18;;;;;;;2.40;1.00;;;;;;;;;;1846837;75;26244;-35
2022/12/15 09:28:46;;;;;;;1.20;1.10;;;;;;;;;;1837053;76;26667;-35
2022/12/15 09:31:14;;;;;;;1.67;1.00;;;;;;;;;;1844758;75;26657;-34
2022/12/15 09:33:41;;;;;;;0.95;0.95;;;;;;;;;;1846975;75;26613;-34
2022/12/15 09:36:10;;;;;;;0.75;0.75;;;;;;;;;;1861762;76;26223;-38
2022/12/15 09:38:37;;;;;;;1.00;1.00;;;;;;;;;;1833236;76;26662;-41
2022/12/15 09:41:09;;;;;;;0.90;0.90;;;;;;;;;;1837468;75;26208;-37
2022/12/15 09:43:38;;;;;;;0.80;0.80;;;;;;;;;;1847063;75;26283;-36
2022/12/15 09:46:10;;;;;;;0.90;0.90;;;;;;;;;;1828819;75;26290;-39
2022/12/15 09:48:38;;;;;;;0.80;0.80;;;;;;;;;;1848675;75;27008;-38
2022/12/15 09:51:07;;;;;;;0.90;0.90;;;;;;;;;;1849230;75;26198;-34
2022/12/15 09:53:35;;;;;;;0.90;0.90;;;;;;;;;;1846474;75;28094;-37
2022/12/15 09:56:07;;;;;;;1.10;1.10;;;;;;;;;;1850819;75;26216;-38
2022/12/15 09:58:36;;;;;;;1.00;1.00;;;;;;;;;;1852389;76;26212;-36
2022/12/15 10:01:13;;;;;;;1.12;1.12;;;;;;;;;;1850970;75;26228;-36
2022/12/15 10:03:54;;;;;;;1.07;1.07;;;;;;;;;;1856202;75;26708;-34
2022/12/15 10:06:32;;;;;;;1.20;1.20;;;;;;;;;;1843846;75;26278;-38
2022/12/15 10:09:04;;;;;;;1.10;1.10;;;;;;;;;;1829921;76;26252;-34
2022/12/15 10:11:35;;;;;;;1.17;1.10;;;;;;;;;;1836894;77;26220;-37
2022/12/15 10:14:21;;;;;;;1.10;1.10;;;;;;;;;;1830402;77;26310;-34
2022/12/15 10:16:51;;;;;;;1.20;1.20;;;;;;;;;;1842854;77;26214;-36
2022/12/15 10:19:36;;;;;;;1.15;1.15;;;;;;;;;;1834637;76;25935;-34
2022/12/15 10:22:03;;;;;;;2.95;0.90;;;;;;;;;;1841922;77;27088;-35
2022/12/15 10:24:32;;;;;;;1.10;1.10;;;;;;;;;;1832409;76;26215;-37
2022/12/15 10:27:00;;;;;;;1.00;1.00;;;;;;;;;;1827673;77;26238;-34
2022/12/15 10:29:44;;;;;;;2.15;1.00;;;;;;;;;;1838040;77;26221;-37
2022/12/15 10:32:15;;;;;;;1.15;1.07;;;;;;;;;;1830128;76;26650;-35
2022/12/15 10:34:43;;;;;;;0.90;0.90;;;;;;;;;;1820506;76;26290;-35
2022/12/15 10:37:20;;;;;;;1.10;1.00;;;;;;;;;;1856610;77;26221;-35
2022/12/15 10:39:48;;;;;;;0.93;0.93;;;;;;;;;;1844396;77;26645;-37
2022/12/15 10:42:22;;;;;;;1.27;1.00;;;;;;;;;;1843770;77;26301;-33
2022/12/15 10:44:51;;;;;;;0.90;0.90;;;;;;;;;;1842155;77;26201;-34
2022/12/15 10:47:30;;;;;;;1.00;1.00;;;;;;;;;;1851667;76;26206;-35
2022/12/15 10:49:58;;;;;;;1.10;1.10;;;;;;;;;;1838291;77;26233;-40
2022/12/15 10:52:33;;;;;;;0.90;0.90;;;;;;;;;;1797181;77;26216;-35
2022/12/15 10:55:00;;;;;;;0.90;0.90;;;;;;;;;;1836874;76;26244;-33
2022/12/15 10:57:30;;;;;;;0.90;0.90;;;;;;;;;;1847572;77;26201;-34
2022/12/15 11:00:02;;;;;;;0.85;0.85;;;;;;;;;;1836440;77;26217;-35
2022/12/15 11:02:35;;;;;;;0.95;0.95;;;;;;;;;;1821316;77;26279;-38
2022/12/15 11:05:06;;;;;;;2.65;0.90;;;;;;;;;;1843370;77;26234;-39
2022/12/15 11:07:35;;;;;;;1.00;1.00;;;;;;;;;;1840581;77;26646;-34
2022/12/15 11:10:04;;;;;;;1.30;1.25;;;;;;;;;;1847008;76;26264;-42
2022/12/15 11:15:24;;;;;;;2.35;0.90;;;;;;;;;;1831440;76;26650;-34
2022/12/15 11:18:02;;;;;;;0.90;0.90;;;;;;;;;;1827788;75;26203;-36
2022/12/15 11:20:34;;;;;;;0.90;0.90;;;;;;;;;;1826231;76;26189;-35
2022/12/15 11:23:21;;;;;;;0.93;0.90;;;;;;;;;;1841307;75;26367;-34
2022/12/15 11:25:49;;;;;;;1.00;1.00;;;;;;;;;;1798993;78;26220;-34
2022/12/15 11:28:24;;;;;;;1.10;1.10;;;;;;;;;;1799442;78;26314;-35
2022/12/15 11:30:58;;;;;;;0.93;0.93;;;;;;;;;;1809857;76;27234;-35
2022/12/15 11:33:26;;;;;;;0.98;0.98;;;;;;;;;;1828966;76;26219;-34
2022/12/15 11:35:58;;;;;;;1.00;1.00;;;;;;;;;;1829755;75;26330;-33
2022/12/15 11:38:26;;;;;;;1.00;1.00;;;;;;;;;;1828662;75;26648;-37
2022/12/15 11:40:55;;;;;;;1.00;1.00;;;;;;;;;;1827843;76;26786;-34
2022/12/15 11:43:36;;;;;;;1.10;1.10;;;;;;;;;;1832850;76;26321;-39
2022/12/15 11:46:08;;;;;;;1.10;1.10;;;;;;;;;;1840413;75;26658;-46
2022/12/15 11:48:37;;;;;;;1.10;1.10;;;;;;;;;;1837374;76;26264;-37
2022/12/15 11:51:05;;;;;;;1.10;1.10;;;;;;;;;;1854031;75;26155;-34
2022/12/15 11:53:37;;;;;;;1.05;1.05;;;;;;;;;;1832988;76;26200;-38
2022/12/15 11:56:09;;;;;;;1.42;1.42;;;;;;;;;;1822470;76;26223;-36
2022/12/15 11:58:40;;;;;;;1.12;1.12;;;;;;;;;;1842382;75;27226;-44
2022/12/15 12:01:15;;;;;;;1.40;1.30;;;;;;;;;;1851333;75;26263;-39
2022/12/15 12:03:50;;;;;;;1.30;1.30;;;;;;;;;;1850851;75;26217;-42
2022/12/15 12:06:19;;;;;;;1.40;1.30;;;;;;;;;;1862310;76;26200;-39
2022/12/15 12:08:53;;;;;;;1.50;1.40;;;;;;;;;;1843026;76;26221;-35
2022/12/15 12:11:22;;;;;;;1.25;1.25;;;;;;;;;;1860531;76;26248;-48
2022/12/15 12:13:54;;;;;;;2.45;1.10;;;;;;;;;;1844888;75;26294;-36
2022/12/15 12:16:40;;;;;;;1.20;1.20;;;;;;;;;;1850857;76;26623;-35
2022/12/15 12:19:13;;;;;;;1.05;1.05;;;;;;;;;;1843438;76;26188;-36
2022/12/15 12:21:44;;;;;;;1.10;1.10;;;;;;;;;;1822549;76;26204;-35
2022/12/15 12:24:31;;;;;;;1.10;1.10;;;;;;;;;;1826121;76;26219;-41
2022/12/15 12:27:00;;;;;;;1.20;1.20;;;;;;;;;;1849854;76;26346;-37
2022/12/15 12:29:34;;;;;;;1.27;1.10;;;;;;;;;;1831041;75;26213;-35
2022/12/15 12:32:15;;;;;;;1.25;1.25;;;;;;;;;;1830605;76;26207;-41
2022/12/15 12:34:44;;;;;;;1.15;1.05;;;;;;;;;;1830536;76;26573;-38
2022/12/15 12:37:21;;;;;;;1.30;1.30;;;;;;;;;;1831641;75;33579;-36
2022/12/15 12:39:50;;;;;;;1.25;1.25;;;;;;;;;;1820513;76;27012;-41
2022/12/15 12:42:19;;;;;;;1.40;1.35;;;;;;;;;;1830235;76;26210;-36
2022/12/15 12:44:46;;;;;;;1.40;1.30;;;;;;;;;;1804421;75;28284;-43
2022/12/15 12:47:15;;;;;;;1.10;1.10;;;;;;;;;;1824306;76;26907;-39
2022/12/15 12:49:44;;;;;;;1.32;1.30;;;;;;;;;;1827433;75;26240;-44
2022/12/15 12:52:13;;;;;;;1.30;1.20;;;;;;;;;;1826404;75;26345;-37
2022/12/15 12:54:41;;;;;;;1.40;1.30;;;;;;;;;;1826686;76;26327;-36
2022/12/15 12:57:13;;;;;;;1.30;1.30;;;;;;;;;;1825492;76;26637;-35
2022/12/15 12:59:41;;;;;;;1.22;1.12;;;;;;;;;;1831771;76;26216;-36
2022/12/15 13:02:16;;;;;;;1.12;1.12;;;;;;;;;;1823857;76;27002;-44
2022/12/15 13:04:44;;;;;;;1.02;1.02;;;;;;;;;;1826276;75;26369;-35
2022/12/15 13:07:28;;;;;;;1.30;1.30;;;;;;;;;;1824635;76;26280;-38
2022/12/15 13:10:09;;;;;;;1.12;1.12;;;;;;;;;;1821257;76;26271;-37
2022/12/15 13:12:38;;;;;;;1.30;1.20;;;;;;;;;;1825995;76;26645;-40
2022/12/15 13:15:13;;;;;;;4.22;1.37;;;;;;;;;;1825007;75;26742;-35
2022/12/15 13:17:42;;;;;;;1.20;1.20;;;;;;;;;;1800470;75;26352;-44
2022/12/15 13:20:22;;;;;;;1.62;1.07;;;;;;;;;;1818360;76;26223;-37
2022/12/15 13:22:50;;;;;;;1.00;1.00;;;;;;;;;;1826560;75;26301;-38
2022/12/15 13:25:35;;;;;;;1.37;1.37;;;;;;;;;;1833403;76;26351;-34
2022/12/15 13:28:04;;;;;;;1.37;1.30;;;;;;;;;;1845098;76;26219;-34
2022/12/15 13:30:31;;;;;;;1.30;1.30;;;;;;;;;;1876259;75;26191;-35
2022/12/15 13:33:15;;;;;;;1.22;1.22;;;;;;;;;;1842834;75;26265;-40
2022/12/15 13:35:42;;;;;;;1.10;1.10;;;;;;;;;;1849162;76;26748;-34
2022/12/15 13:38:17;;;;;;;1.62;1.10;;;;;;;;;;1849392;76;26242;-33
2022/12/15 13:40:46;;;;;;;1.20;1.20;;;;;;;;;;1867131;76;26190;-36
2022/12/15 13:43:30;;;;;;;1.20;1.10;;;;;;;;;;1872845;76;26280;-33
2022/12/15 13:46:03;;;;;;;1.20;1.20;;;;;;;;;;1863230;76;26258;-35
2022/12/15 13:48:35;;;;;;;1.30;1.20;;;;;;;;;;1855689;75;26274;-38
2022/12/15 13:51:08;;;;;;;1.20;1.20;;;;;;;;;;1846751;76;26290;-43
2022/12/15 13:53:53;;;;;;;1.25;1.20;;;;;;;;;;1847382;75;26669;-41
2022/12/15 13:56:25;;;;;;;2.25;1.35;;;;;;;;;;1833184;75;26185;-36
2022/12/15 13:58:56;;;;;;;1.30;1.30;;;;;;;;;;1849710;75;26212;-32
2022/12/15 14:01:25;;;;;;;1.00;1.00;;;;;;;;;;1841457;76;26302;-34
2022/12/15 14:04:00;;;;;;;1.10;1.10;;;;;;;;;;1838499;75;26298;-38
2022/12/15 14:06:29;;;;;;;1.17;1.17;;;;;;;;;;1832089;75;26287;-41
2022/12/15 14:08:56;;;;;;;1.10;1.10;;;;;;;;;;1860695;76;26279;-36
2022/12/15 14:11:24;;;;;;;1.20;1.20;;;;;;;;;;1864992;76;26781;-35
2022/12/15 14:13:51;;;;;;;1.15;1.15;;;;;;;;;;1860247;75;26210;-35
2022/12/15 14:16:20;;;;;;;1.10;1.10;;;;;;;;;;1866009;75;26660;-34
2022/12/15 14:18:52;;;;;;;1.12;1.12;;;;;;;;;;1848348;75;26738;-33
2022/12/15 14:21:20;;;;;;;1.00;1.00;;;;;;;;;;1825280;75;26245;-37
2022/12/15 14:23:48;;;;;;;1.20;1.10;;;;;;;;;;1845444;75;26309;-37
2022/12/15 14:26:16;;;;;;;1.20;1.20;;;;;;;;;;1847137;75;26189;-33
2022/12/15 14:28:48;;;;;;;1.20;1.20;;;;;;;;;;1848515;75;26284;-35
2022/12/15 14:31:17;;;;;;;1.20;1.20;;;;;;;;;;1845478;75;26785;-36
2022/12/15 14:33:46;;;;;;;1.30;1.30;;;;;;;;;;1844533;75;26596;-33
2022/12/15 14:36:15;;;;;;;1.12;1.12;;;;;;;;;;1874760;75;26662;-36
2022/12/15 14:38:44;;;;;;;1.17;1.17;;;;;;;;;;1880380;75;26179;-35
2022/12/15 14:41:22;;;;;;;1.27;1.27;;;;;;;;;;1845011;75;26208;-38
2022/12/15 14:43:49;;;;;;;1.10;1.10;;;;;;;;;;1834760;75;26205;-35
2022/12/15 14:46:18;;;;;;;1.15;1.10;;;;;;;;;;1825099;75;26281;-38
2022/12/15 14:48:50;;;;;;;1.20;1.20;;;;;;;;;;1828079;75;26892;-38
2022/12/15 14:51:17;;;;;;;1.37;1.37;;;;;;;;;;1823468;76;26304;-36
2022/12/15 14:53:46;;;;;;;1.30;1.30;;;;;;;;;;1836948;75;26225;-36
2022/12/15 14:56:21;;;;;;;1.35;1.30;;;;;;;;;;1836358;75;26345;-35
2022/12/15 14:58:49;;;;;;;1.35;1.35;;;;;;;;;;1829952;75;26340;-35
2022/12/15 15:01:24;;;;;;;1.72;1.20;;;;;;;;;;1824466;75;26750;-40
2022/12/15 15:03:59;;;;;;;1.30;1.30;;;;;;;;;;1830713;76;26292;-35
2022/12/15 15:06:39;;;;;;;1.40;1.40;;;;;;;;;;1827536;75;26293;-35
2022/12/15 15:09:16;;;;;;;1.22;1.22;;;;;;;;;;1825348;76;26333;-40
2022/12/15 15:11:44;;;;;;;1.82;1.27;;;;;;;;;;1829655;75;26330;-38
2022/12/15 15:14:15;;;;;;;1.20;1.20;;;;;;;;;;1828142;75;26214;-35
2022/12/15 15:16:43;;;;;;;2.05;1.40;;;;;;;;;;1825484;76;26181;-38
2022/12/15 15:19:12;;;;;;;1.30;1.30;;;;;;;;;;1827371;75;26668;-38
2022/12/15 15:21:39;;;;;;;1.30;1.30;;;;;;;;;;1834949;75;26865;-35
2022/12/15 15:24:11;;;;;;;1.40;1.40;;;;;;;;;;1834038;75;26679;-37
2022/12/15 15:26:45;;;;;;;1.40;1.40;;;;;;;;;;1838769;75;26243;-36
2022/12/15 15:29:28;;;;;;;1.72;1.20;;;;;;;;;;1856574;75;26244;-39
2022/12/15 15:31:57;;;;;;;2.47;1.22;;;;;;;;;;1845769;75;26231;-36
2022/12/15 15:34:25;;;;;;;1.40;1.40;;;;;;;;;;1850656;75;26214;-34
2022/12/15 15:36:53;;;;;;;1.12;1.12;;;;;;;;;;1858158;75;26829;-39
2022/12/15 15:39:22;;;;;;;1.20;1.20;;;;;;;;;;1852165;75;26271;-36
2022/12/15 15:41:49;;;;;;;1.22;1.22;;;;;;;;;;1844272;75;26210;-36
2022/12/15 15:44:17;;;;;;;1.22;1.22;;;;;;;;;;1856180;75;26202;-38
2022/12/15 15:46:48;;;;;;;1.50;1.40;;;;;;;;;;1854037;75;26225;-36
2022/12/15 15:49:19;;;;;;;1.30;1.30;;;;;;;;;;1833423;76;26766;-35
2022/12/15 15:51:47;;;;;;;1.20;1.20;;;;;;;;;;1832003;76;26261;-37
2022/12/15 15:54:16;;;;;;;1.37;1.37;;;;;;;;;;1826976;75;26227;-39
2022/12/15 15:56:43;;;;;;;1.50;1.40;;;;;;;;;;1830109;75;26698;-36
2022/12/15 15:59:12;;;;;;;1.47;1.47;;;;;;;;;;1829740;76;26684;-40
2022/12/15 16:01:39;;;;;;;1.35;1.30;;;;;;;;;;1830181;75;26321;-36
2022/12/15 16:04:07;;;;;;;1.45;1.45;;;;;;;;;;1836923;76;26219;-36
2022/12/15 16:06:34;;;;;;;2.17;1.55;;;;;;;;;;1841371;75;26315;-37
2022/12/15 16:09:02;;;;;;;2.20;1.70;;;;;;;;;;1829079;75;26822;-39
2022/12/15 16:11:32;;;;;;;2.45;1.70;;;;;;;;;;1828137;75;26236;-38
2022/12/15 16:14:00;;;;;;;1.80;1.70;;;;;;;;;;1824172;77;26221;-35
2022/12/15 16:16:29;;;;;;;2.47;2.20;;;;;;;;;;1823020;76;26310;-35
2022/12/15 16:18:56;;;;;;;2.90;2.33;;;;;;;;;;1831718;76;26751;-38
2022/12/15 16:21:25;;;;;;;2.60;2.40;;;;;;;;;;1812780;77;26762;-37
2022/12/15 16:23:53;;;;;;;5.25;2.50;;;;;;;;;;1826620;76;26217;-35
2022/12/15 16:26:30;;;;;;;5.03;2.70;;;;;;;;;;1833987;76;26212;-35
2022/12/15 16:28:58;;;;;;;3.10;2.50;;;;;;;;;;1813837;75;26206;-40
2022/12/15 16:31:34;;;;;;;3.50;2.52;;;;;;;;;;1817806;77;27085;-48
2022/12/15 16:34:02;;;;;;;5.90;3.70;;;;;;;;;;1825438;75;26917;-41
2022/12/15 16:36:29;;;;;;;14.45;6.50;;;;;;;;;;1826580;77;26266;-35
2022/12/15 16:38:56;;;;;;;20.00;9.03;;;;;;;;;;1828268;76;26287;-36
2022/12/15 16:41:26;;;;;;;29.50;11.25;;;;;;;;;;1825747;77;26314;-35
2022/12/15 16:43:53;;;;;;;33.80;14.70;;;;;;;;;;1824942;76;26294;-36
2022/12/15 16:46:20;;;;;;;39.58;16.62;;;;;;;;;;1825230;77;26246;-38
2022/12/15 16:48:47;;;;;;;39.90;17.02;;;;;;;;;;1811868;77;26357;-36
2022/12/15 16:51:16;;;;;;;38.40;17.57;;;;;;;;;;1820077;75;26240;-39
2022/12/15 16:53:43;;;;;;;40.15;17.75;;;;;;;;;;1809911;76;26209;-39
2022/12/15 16:56:12;;;;;;;33.98;16.40;;;;;;;;;;1826997;76;26278;-37
2022/12/15 16:58:39;;;;;;;33.23;16.17;;;;;;;;;;1811206;76;26569;-36
2022/12/15 17:01:06;;;;;;;43.00;17.12;;;;;;;;;;1827841;76;26365;-36
2022/12/15 17:03:34;;;;;;;36.40;15.93;;;;;;;;;;1823754;76;26275;-38
2022/12/15 17:06:02;;;;;;;31.77;15.00;;;;;;;;;;1832029;77;26294;-40
2022/12/15 17:08:40;;;;;;;29.50;14.83;;;;;;;;;;1826336;76;26689;-39
2022/12/15 17:11:09;;;;;;;29.70;13.65;;;;;;;;;;1825263;75;26264;-40
2022/12/15 17:13:37;;;;;;;24.60;12.53;;;;;;;;;;1827370;75;26248;-36
2022/12/15 17:16:05;;;;;;;26.85;11.63;;;;;;;;;;1832715;75;26973;-38
2022/12/15 17:18:33;;;;;;;25.10;12.55;;;;;;;;;;1833697;75;26239;-38
2022/12/15 17:21:07;;;;;;;24.72;12.05;;;;;;;;;;1834563;76;26283;-36
2022/12/15 17:23:35;;;;;;;25.17;11.83;;;;;;;;;;1839811;76;26495;-36